Time;durP1;ratioP1;P1;durP2;ratioP2;P2;SDS_P1;SDS_P2;PMS_P1;PMS_P2;Temp;Humidity;BMP_temperature;BMP_pressure;BME280_temperature;BME280_humidity;BME280_pressure;Samples;Min_cycle;Max_cycle;Signal;HPM_P1;HPM_P2
2022/01/17 00:01:36;;;;;;;19.00;9.60;;;;;;;-0.16;83.08;98789.75;5110221;28;20030;-67
2022/01/17 00:04:01;;;;;;;17.52;9.23;;;;;;;-0.13;82.71;98790.38;5110663;28;20364;-67
2022/01/17 00:06:27;;;;;;;18.60;9.73;;;;;;;-0.11;82.99;98780.19;5111275;28;20023;-69
2022/01/17 00:08:52;;;;;;;17.60;9.18;;;;;;;-0.11;82.96;98774.81;5111732;28;20034;-68
2022/01/17 00:11:19;;;;;;;19.30;10.05;;;;;;;-0.09;83.11;98778.09;5111133;28;20035;-67
2022/01/17 00:13:45;;;;;;;18.95;10.20;;;;;;;-0.08;83.09;98775.19;5111559;28;20028;-68
2022/01/17 00:21:05;;;;;;;21.52;10.32;;;;;;;0.01;82.91;98756.84;5111129;28;20030;-68
2022/01/17 00:23:31;;;;;;;24.77;13.75;;;;;;;0.04;82.80;98758.28;5090472;28;20040;-68
2022/01/17 00:25:57;;;;;;;23.77;12.27;;;;;;;0.05;82.55;98755.38;5111831;28;20038;-68
2022/01/17 00:28:22;;;;;;;22.30;11.27;;;;;;;0.08;82.41;98746.84;5111375;28;20028;-68
2022/01/17 00:30:48;;;;;;;24.52;12.35;;;;;;;0.11;82.28;98742.88;5110891;28;20023;-68
2022/01/17 00:33:13;;;;;;;23.67;10.57;;;;;;;0.10;82.42;98738.53;5109717;28;20023;-68
2022/01/17 00:35:39;;;;;;;26.55;11.50;;;;;;;0.13;82.12;98738.09;5110109;28;20028;-68
2022/01/17 00:38:05;;;;;;;27.23;13.43;;;;;;;0.15;82.15;98725.22;5091590;28;20011;-69
2022/01/17 00:40:31;;;;;;;27.17;13.15;;;;;;;0.18;82.23;98732.03;5109154;28;20388;-68
2022/01/17 00:42:56;;;;;;;25.52;11.90;;;;;;;0.21;82.30;98736.97;5109857;28;20059;-68
2022/01/17 00:45:27;;;;;;;26.45;12.60;;;;;;;0.24;82.14;98745.44;5109740;28;20550;-68
2022/01/17 00:47:55;;;;;;;20.73;10.10;;;;;;;0.25;81.83;98730.91;5109444;28;20032;-68
2022/01/17 00:50:25;;;;;;;20.80;10.18;;;;;;;0.28;81.74;98730.47;5109616;28;20487;-67
2022/01/17 00:52:51;;;;;;;;;;;;;;;0.32;81.85;98724.63;5110220;28;20031;-69
2022/01/17 00:55:17;;;;;;;16.98;10.15;;;;;;;0.33;81.87;98726.28;5110225;28;20670;-68
2022/01/17 00:57:43;;;;;;;19.10;9.77;;;;;;;0.36;81.12;98721.28;5108941;28;20115;-68
2022/01/17 01:00:10;;;;;;;19.23;10.75;;;;;;;0.38;81.48;98705.69;5111037;28;20110;-68
2022/01/17 01:02:36;;;;;;;17.60;10.25;;;;;;;0.40;81.09;98717.09;5110601;28;20024;-67
2022/01/17 01:05:04;;;;;;;16.17;9.65;;;;;;;0.43;81.13;98713.91;5110502;28;20023;-68
2022/01/17 01:07:29;;;;;;;21.17;12.02;;;;;;;0.44;81.13;98698.56;5110553;28;20038;-68
2022/01/17 01:10:04;;;;;;;14.60;9.35;;;;;;;0.46;80.89;98699.16;5110869;28;20032;-68
2022/01/17 01:12:29;;;;;;;17.02;8.98;;;;;;;0.49;80.80;98703.28;5110976;28;20028;-68
2022/01/17 01:14:55;;;;;;;15.48;9.77;;;;;;;0.51;80.78;98699.31;5110965;28;20032;-68
2022/01/17 01:17:36;;;;;;;16.75;9.32;;;;;;;0.53;80.84;98702.63;5110756;28;20032;-68
2022/01/17 01:28:28;;;;;;;14.23;8.00;;;;;;;0.62;79.65;98686.94;5110661;28;20062;-68
2022/01/17 01:30:55;;;;;;;14.88;8.00;;;;;;;0.63;79.27;98680.50;5088715;28;20035;-68
2022/01/17 01:33:43;;;;;;;13.25;8.02;;;;;;;0.65;79.67;98662.19;5110856;28;20506;-68
2022/01/17 01:36:15;;;;;;;15.85;7.50;;;;;;;0.68;79.12;98666.31;5110483;28;20024;-67
2022/01/17 01:38:42;;;;;;;13.57;8.20;;;;;;;0.67;79.13;98657.41;5110544;28;20023;-68
2022/01/17 01:41:07;;;;;;;10.70;6.95;;;;;;;0.71;78.17;98657.75;5090007;28;20090;-68
2022/01/17 01:43:33;;;;;;;11.15;6.80;;;;;;;0.71;78.57;98646.97;5110312;28;20615;-68
2022/01/17 01:46:01;;;;;;;10.88;6.20;;;;;;;0.71;78.52;98647.81;5110747;28;20391;-67
2022/01/17 01:48:31;;;;;;;8.70;5.57;;;;;;;0.72;78.47;98637.81;5110565;28;20031;-68
2022/01/17 01:50:56;;;;;;;;;;;;;;;0.74;78.21;98638.41;5088917;28;20032;-68
2022/01/17 01:53:23;;;;;;;10.57;5.05;;;;;;;0.76;78.02;98633.59;5110063;28;20378;-68
2022/01/17 01:55:51;;;;;;;8.98;5.18;;;;;;;0.76;77.77;98639.00;5110437;28;20028;-68
2022/01/17 01:58:16;;;;;;;9.05;5.30;;;;;;;0.77;77.87;98621.75;5110257;28;20042;-68
2022/01/17 02:00:42;;;;;;;9.80;5.35;;;;;;;0.79;77.68;98622.34;5110429;28;20487;-68
2022/01/17 02:03:07;;;;;;;7.82;5.18;;;;;;;0.83;77.70;98615.44;5110346;28;20055;-68
2022/01/17 02:05:33;;;;;;;9.05;4.90;;;;;;;0.85;76.78;98607.94;5089195;28;20016;-67
2022/01/17 02:07:58;;;;;;;7.45;4.78;;;;;;;0.86;77.26;98596.09;5110943;28;20479;-68
2022/01/17 02:10:24;;;;;;;7.57;4.53;;;;;;;0.91;76.42;98594.59;5113404;28;20035;-68
2022/01/17 02:12:49;;;;;;;9.07;5.00;;;;;;;0.91;76.84;98597.28;5113166;28;20031;-68
2022/01/17 02:15:17;;;;;;;6.57;4.18;;;;;;;0.95;76.81;98593.88;5113368;28;20713;-68
2022/01/17 02:17:54;;;;;;;7.32;4.72;;;;;;;0.96;76.83;98589.31;5113754;28;20050;-68
2022/01/17 02:20:35;;;;;;;6.85;4.47;;;;;;;0.98;76.56;98576.41;5094216;28;20093;-68
2022/01/17 02:23:04;;;;;;;7.47;4.50;;;;;;;1.02;76.74;98570.31;5113142;28;20476;-67
2022/01/17 02:25:30;;;;;;;8.30;5.00;;;;;;;1.05;76.58;98566.31;5113254;28;20066;-67
2022/01/17 02:27:56;;;;;;;10.77;5.60;;;;;;;1.06;76.37;98559.03;5112824;28;20372;-68
2022/01/17 02:30:23;;;;;;;7.60;4.70;;;;;;;1.10;76.58;98550.22;5113508;28;20034;-68
2022/01/17 02:32:49;;;;;;;7.88;5.32;;;;;;;1.14;77.04;98559.53;5113155;28;20028;-67
2022/01/17 02:35:20;;;;;;;8.88;5.10;;;;;;;1.16;76.11;98549.31;5112710;28;20037;-67
2022/01/17 02:37:46;;;;;;;7.15;4.72;;;;;;;1.18;75.93;98557.19;5112813;28;20028;-67
2022/01/17 02:40:14;;;;;;;9.25;5.45;;;;;;;1.20;75.91;98555.09;5112617;28;20054;-68
2022/01/17 02:42:39;;;;;;;8.20;5.13;;;;;;;1.22;75.89;98552.97;5089372;28;20206;-67
2022/01/17 02:45:12;;;;;;;9.70;5.68;;;;;;;1.26;75.19;98556.84;5112230;28;20020;-68
2022/01/17 02:47:39;;;;;;;11.35;6.10;;;;;;;1.28;75.28;98560.13;5111648;28;20073;-68
2022/01/17 02:50:05;;;;;;;9.13;5.60;;;;;;;1.32;75.56;98563.19;5112367;28;20363;-68
2022/01/17 02:52:30;;;;;;;10.95;5.90;;;;;;;1.32;75.63;98555.09;5113087;28;20023;-67
2022/01/17 02:54:56;;;;;;;13.75;6.80;;;;;;;1.33;75.44;98556.75;5112431;28;20034;-68
2022/01/17 02:57:21;;;;;;;11.98;6.88;;;;;;;1.35;74.88;98554.63;5112477;28;20106;-67
2022/01/17 02:59:47;;;;;;;9.95;5.97;;;;;;;1.35;74.86;98570.84;5112113;28;20135;-68
2022/01/17 03:02:12;;;;;;;11.70;6.45;;;;;;;1.38;74.52;98564.13;5112583;28;20028;-68
2022/01/17 03:04:38;;;;;;;12.23;7.10;;;;;;;1.37;74.65;98559.78;5112811;28;20022;-68
2022/01/17 03:07:03;;;;;;;13.15;7.78;;;;;;;1.34;74.81;98555.69;5112598;28;20035;-68
2022/01/17 03:09:36;;;;;;;12.07;7.20;;;;;;;1.30;75.64;98549.09;5113219;28;20038;-67
2022/01/17 03:12:01;;;;;;;12.07;7.38;;;;;;;1.26;75.44;98547.91;5112667;28;20031;-68
2022/01/17 03:14:27;;;;;;;12.98;7.47;;;;;;;1.24;75.81;98547.31;5113147;28;20034;-68
2022/01/17 03:16:55;;;;;;;12.10;7.70;;;;;;;1.25;75.91;98548.97;5112669;28;20379;-68
2022/01/17 03:19:20;;;;;;;11.95;7.22;;;;;;;1.25;76.00;98538.97;5111747;28;20031;-68
2022/01/17 03:21:46;;;;;;;12.23;7.75;;;;;;;1.29;75.98;98544.75;5092695;28;20387;-68
2022/01/17 03:24:11;;;;;;;13.02;8.00;;;;;;;1.28;75.52;98540.41;5111893;28;20027;-68
2022/01/17 03:26:36;;;;;;;14.48;8.77;;;;;;;1.32;75.57;98544.28;5112626;28;20015;-68
2022/01/17 03:29:03;;;;;;;13.13;7.90;;;;;;;1.34;75.67;98542.19;5112341;28;20027;-68
2022/01/17 03:31:29;;;;;;;13.43;7.50;;;;;;;1.33;75.13;98529.72;5112039;28;20031;-68
2022/01/17 03:33:54;;;;;;;14.30;7.82;;;;;;;1.33;75.00;98541.34;5112000;28;20493;-68
2022/01/17 03:36:20;;;;;;;13.20;8.40;;;;;;;1.37;75.09;98543.56;5112516;28;20054;-68
2022/01/17 03:38:46;;;;;;;12.52;7.75;;;;;;;1.37;75.56;98547.13;5111890;28;20065;-68
2022/01/17 03:41:14;;;;;;;11.90;7.22;;;;;;;1.38;75.02;98537.94;5111506;28;20059;-68
2022/01/17 03:43:39;;;;;;;13.88;7.95;;;;;;;1.39;74.56;98536.91;5112311;28;20043;-68
2022/01/17 03:46:05;;;;;;;12.07;7.50;;;;;;;1.40;74.61;98535.84;5090831;28;20031;-68
2022/01/17 03:48:32;;;;;;;14.50;8.30;;;;;;;1.42;74.66;98533.72;5089650;28;20024;-68
2022/01/17 03:50:59;;;;;;;14.95;8.77;;;;;;;1.43;75.07;98529.13;5111688;28;20458;-68
2022/01/17 03:53:25;;;;;;;13.68;8.55;;;;;;;1.44;75.40;98542.41;5112307;28;20024;-68
2022/01/17 03:55:51;;;;;;;12.30;8.05;;;;;;;1.45;74.73;98527.00;5111658;28;20031;-67
2022/01/17 03:58:17;;;;;;;13.27;7.57;;;;;;;1.46;74.21;98525.97;5092873;28;20115;-68
2022/01/17 04:00:47;;;;;;;13.85;8.48;;;;;;;1.47;74.47;98523.00;5092608;28;20103;-68
2022/01/17 04:03:12;;;;;;;12.80;8.10;;;;;;;1.49;74.95;98522.78;5110702;28;20114;-68
2022/01/17 04:05:39;;;;;;;17.88;9.32;;;;;;;1.48;74.84;98519.25;5092389;28;20693;-68
2022/01/17 04:08:05;;;;;;;15.85;9.05;;;;;;;1.49;74.25;98510.09;5111158;28;20032;-68
2022/01/17 04:10:31;;;;;;;16.88;9.02;;;;;;;1.54;75.04;98514.81;5111353;28;20393;-68
2022/01/17 04:13:01;;;;;;;14.18;7.80;;;;;;;1.55;74.79;98516.44;5111694;28;20027;-68
2022/01/17 04:15:27;;;;;;;;;;;;;;;1.58;74.64;98515.97;5111857;28;20026;-68
2022/01/17 04:17:52;;;;;;;14.63;8.05;;;;;;;1.59;74.62;98501.41;5110895;28;19911;-68
2022/01/17 04:20:26;;;;;;;12.98;7.53;;;;;;;1.59;74.82;98505.97;5111142;28;20028;-68
2022/01/17 04:22:54;;;;;;;14.65;8.68;;;;;;;1.61;74.66;98502.00;5111230;28;20084;-68
2022/01/17 04:25:21;;;;;;;14.90;8.75;;;;;;;1.64;74.29;98517.72;5111146;28;20028;-68
2022/01/17 04:27:48;;;;;;;16.55;8.32;;;;;;;1.66;73.81;98519.34;5111400;28;20030;-68
2022/01/17 04:30:14;;;;;;;15.38;9.00;;;;;;;1.68;74.75;98509.97;5110966;28;20028;-68
2022/01/17 04:32:44;;;;;;;16.35;8.38;;;;;;;1.71;74.08;98525.72;5110232;28;20490;-68
2022/01/17 04:35:11;;;;;;;18.35;10.40;;;;;;;1.74;73.90;98510.88;5091691;28;20495;-68
2022/01/17 04:37:37;;;;;;;18.33;10.45;;;;;;;1.75;73.48;98501.72;5111179;28;20034;-68
2022/01/17 04:40:04;;;;;;;19.90;10.27;;;;;;;1.74;73.94;98491.97;5110556;28;20501;-68
2022/01/17 04:42:30;;;;;;;21.30;11.07;;;;;;;1.72;74.36;98500.31;5111334;28;20027;-68
2022/01/17 04:45:08;;;;;;;27.80;12.57;;;;;;;1.72;74.10;98494.06;5110572;28;20027;-68
2022/01/17 04:47:37;;;;;;;39.25;18.08;;;;;;;1.73;74.20;98488.44;5110505;28;20081;-68
2022/01/17 04:50:08;;;;;;;27.40;14.10;;;;;;;1.75;74.08;98477.38;5110431;28;20471;-68
2022/01/17 04:52:35;;;;;;;17.13;10.25;;;;;;;1.75;73.95;98485.50;5113502;27;20019;-68
2022/01/17 04:55:05;;;;;;;17.80;9.88;;;;;;;1.76;73.96;98484.44;5089526;28;20031;-68
2022/01/17 04:57:31;;;;;;;16.63;9.55;;;;;;;1.75;74.32;98478.22;5110722;28;20019;-68
2022/01/17 04:59:56;;;;;;;17.13;9.18;;;;;;;1.76;73.96;98481.72;5109776;28;20031;-68
2022/01/17 05:02:23;;;;;;;18.05;10.27;;;;;;;1.76;74.08;98473.63;5092129;28;20024;-68
2022/01/17 05:04:48;;;;;;;15.38;8.57;;;;;;;1.75;74.23;98474.69;5110387;28;20080;-68
2022/01/17 05:07:14;;;;;;;16.05;8.75;;;;;;;1.74;74.30;98484.69;5109619;28;20463;-68
2022/01/17 05:09:41;;;;;;;15.68;8.57;;;;;;;1.75;73.95;98482.78;5110203;28;20031;-68
2022/01/17 05:12:08;;;;;;;19.15;8.98;;;;;;;1.76;74.03;98473.63;5110668;28;20179;-68
2022/01/17 05:14:34;;;;;;;17.27;9.30;;;;;;;1.76;74.23;98473.63;5109984;28;20534;-67
2022/01/17 05:17:20;;;;;;;14.35;8.70;;;;;;;1.76;73.62;98466.34;5110489;28;20110;-68
2022/01/17 05:19:55;;;;;;;18.83;9.75;;;;;;;1.78;73.68;98466.94;5110313;28;20047;-67
2022/01/17 05:22:21;;;;;;;24.30;11.55;;;;;;;1.77;73.51;98462.59;5110828;28;20030;-68
2022/01/17 05:24:47;;;;;;;16.70;9.70;;;;;;;1.79;73.92;98451.50;5110832;28;20103;-68
2022/01/17 05:27:13;;;;;;;18.55;10.27;;;;;;;1.77;73.68;98449.06;5109874;28;20043;-68
2022/01/17 05:29:39;;;;;;;16.40;9.27;;;;;;;1.76;73.48;98442.00;5110413;28;20037;-67
2022/01/17 05:32:05;;;;;;;14.70;8.52;;;;;;;1.78;74.00;98429.06;5111224;28;20028;-68
2022/01/17 05:34:34;;;;;;;17.27;8.77;;;;;;;1.78;73.49;98422.81;5111117;28;20200;-68
2022/01/17 05:37:00;;;;;;;17.98;8.73;;;;;;;1.81;73.71;98426.94;5110159;28;20494;-68
2022/01/17 05:39:26;;;;;;;15.60;8.38;;;;;;;1.81;73.37;98427.75;5110419;28;20028;-68
2022/01/17 05:41:51;;;;;;;16.60;9.00;;;;;;;1.82;74.24;98423.19;5107809;28;20071;-70
2022/01/17 05:44:17;;;;;;;19.50;9.13;;;;;;;1.82;73.91;98417.78;5094744;28;20504;-69
2022/01/17 05:46:42;;;;;;;21.45;9.80;;;;;;;1.85;73.46;98422.69;5115102;28;20098;-68
2022/01/17 05:49:07;;;;;;;18.77;9.18;;;;;;;1.84;73.84;98410.22;5115119;28;20126;-68
2022/01/17 05:51:33;;;;;;;17.35;8.70;;;;;;;1.85;73.18;98433.50;5115973;27;20610;-68
2022/01/17 05:53:58;;;;;;;20.58;9.23;;;;;;;1.83;73.30;98435.66;5114266;28;20019;-68
2022/01/17 05:56:24;;;;;;;18.95;9.73;;;;;;;1.83;73.46;98433.75;5095631;28;20020;-70
2022/01/17 05:58:49;;;;;;;18.30;9.98;;;;;;;1.84;73.54;98445.38;5094567;28;20024;-68
2022/01/17 06:01:15;;;;;;;18.40;9.63;;;;;;;1.84;73.77;98439.97;5113844;28;20024;-69
2022/01/17 06:03:41;;;;;;;14.32;7.85;;;;;;;1.86;73.44;98445.97;5113878;28;20032;-68
2022/01/17 06:06:06;;;;;;;16.33;8.10;;;;;;;1.89;73.89;98448.19;5113682;28;20475;-68
2022/01/17 06:08:33;;;;;;;16.27;8.57;;;;;;;1.92;73.01;98432.31;5113099;28;20078;-70
2022/01/17 06:10:59;;;;;;;16.65;7.93;;;;;;;1.93;73.41;98433.97;5113361;28;20023;-70
2022/01/17 06:13:25;;;;;;;18.10;9.02;;;;;;;1.93;73.36;98433.97;5095013;28;20023;-68
2022/01/17 06:15:50;;;;;;;15.18;7.57;;;;;;;1.95;73.11;98422.88;5113625;28;20030;-68
2022/01/17 06:18:16;;;;;;;16.92;7.75;;;;;;;1.97;73.06;98422.66;5113093;28;20054;-68
2022/01/17 06:20:42;;;;;;;19.40;8.00;;;;;;;1.97;73.75;98404.53;5113106;28;20478;-67
2022/01/17 06:23:07;;;;;;;12.93;6.30;;;;;;;2.00;72.85;98416.78;5113478;28;20024;-67
2022/01/17 06:25:32;;;;;;;12.02;6.25;;;;;;;2.00;72.38;98408.66;5113325;28;20015;-68
2022/01/17 06:27:58;;;;;;;13.60;6.82;;;;;;;2.00;72.76;98406.75;5091047;28;20506;-68
2022/01/17 06:30:24;;;;;;;14.27;7.15;;;;;;;2.01;72.80;98400.28;5094637;28;20019;-67
2022/01/17 06:32:49;;;;;;;17.08;7.45;;;;;;;2.05;72.99;98392.50;5112839;28;20077;-68
2022/01/17 06:35:15;;;;;;;15.90;7.03;;;;;;;2.04;72.82;98369.22;5113330;28;20050;-69
2022/01/17 06:37:42;;;;;;;12.20;6.38;;;;;;;2.04;72.48;98372.75;5092207;28;20040;-69
2022/01/17 06:40:08;;;;;;;13.15;6.32;;;;;;;2.06;72.30;98377.91;5112825;28;20064;-69
2022/01/17 06:42:36;;;;;;;12.05;5.30;;;;;;;2.06;72.98;98377.91;5113009;28;20106;-68
2022/01/17 06:45:04;;;;;;;12.77;6.60;;;;;;;2.05;72.44;98387.09;5113262;28;20019;-68
2022/01/17 06:47:34;;;;;;;16.48;7.40;;;;;;;2.06;72.84;98384.16;5090980;28;20052;-69
2022/01/17 06:50:00;;;;;;;20.92;7.68;;;;;;;2.03;73.41;98378.41;5108843;28;20031;-70
2022/01/17 06:52:26;;;;;;;23.40;8.77;;;;;;;2.01;72.89;98362.41;5112884;28;20050;-68
2022/01/17 06:54:55;;;;;;;18.70;7.50;;;;;;;1.95;73.30;98354.47;5111957;28;20477;-68
2022/01/17 06:57:22;;;;;;;15.82;7.22;;;;;;;1.90;73.64;98339.78;5112139;28;20394;-68
2022/01/17 06:59:48;;;;;;;21.35;9.05;;;;;;;1.86;73.33;98343.19;5111982;28;20108;-68
2022/01/17 07:02:14;;;;;;;18.55;8.88;;;;;;;1.81;73.73;98329.59;5112702;28;20107;-69
2022/01/17 07:04:39;;;;;;;16.23;7.07;;;;;;;1.74;74.03;98327.03;5094192;28;20024;-69
2022/01/17 07:07:04;;;;;;;22.65;10.30;;;;;;;1.74;74.70;98311.63;5112175;28;20172;-68
2022/01/17 07:09:30;;;;;;;19.92;9.00;;;;;;;1.73;74.87;98319.97;5111842;28;20034;-68
2022/01/17 07:11:58;;;;;;;16.48;7.78;;;;;;;1.71;74.61;98324.78;5111744;28;20028;-69
2022/01/17 07:14:26;;;;;;;15.13;8.20;;;;;;;1.69;74.60;98337.72;5111905;28;20065;-68
2022/01/17 07:16:52;;;;;;;20.15;8.88;;;;;;;1.69;75.29;98353.97;5093130;28;20472;-68
2022/01/17 07:19:17;;;;;;;17.92;8.40;;;;;;;1.70;74.75;98361.84;5092390;28;20066;-68
2022/01/17 07:21:43;;;;;;;15.88;7.60;;;;;;;1.72;75.07;98370.53;5111447;28;20032;-69
2022/01/17 07:24:09;;;;;;;18.48;7.85;;;;;;;1.75;74.94;98361.94;5112134;28;20024;-70
2022/01/17 07:26:34;;;;;;;22.27;9.85;;;;;;;1.80;75.29;98368.50;5112238;28;20031;-69
2022/01/17 07:29:00;;;;;;;15.70;7.13;;;;;;;1.82;75.20;98377.22;5111232;28;20034;-69
2022/01/17 07:31:26;;;;;;;12.32;6.68;;;;;;;1.82;75.41;98385.31;5111603;28;20051;-68
2022/01/17 07:33:52;;;;;;;14.18;7.63;;;;;;;1.83;75.17;98376.97;5111623;28;20028;-69
2022/01/17 07:36:19;;;;;;;16.02;7.70;;;;;;;1.86;74.58;98344.03;5111888;28;20073;-69
2022/01/17 07:38:46;;;;;;;12.63;7.40;;;;;;;1.88;74.86;98305.91;5110947;28;20085;-68
2022/01/17 07:41:12;;;;;;;11.35;6.40;;;;;;;1.88;74.67;98297.78;5111088;28;20067;-68
2022/01/17 07:43:38;;;;;;;14.90;7.60;;;;;;;1.88;75.07;98282.41;5111207;28;20023;-69
2022/01/17 07:46:07;;;;;;;13.10;7.03;;;;;;;1.92;75.47;98266.50;5107065;28;20027;-70
2022/01/17 07:51:23;;;;;;;;;;;;;;;1.96;74.79;98289.28;5084773;27;20032;-69
2022/01/17 07:53:49;;;;;;;13.80;6.70;;;;;;;1.97;74.36;98288.22;5112551;27;19965;-69
2022/01/17 07:56:14;;;;;;;17.25;8.25;;;;;;;1.99;75.00;98280.69;5111459;27;20114;-69
2022/01/17 07:58:41;;;;;;;13.95;7.00;;;;;;;2.01;74.94;98266.94;5112849;27;20440;-69
2022/01/17 08:01:07;;;;;;;17.15;7.50;;;;;;;2.05;74.73;98268.88;5112744;27;20086;-69
2022/01/17 08:03:33;;;;;;;14.77;7.13;;;;;;;2.06;74.36;98261.56;5093493;27;20038;-69
2022/01/17 08:05:59;;;;;;;17.73;7.75;;;;;;;2.11;74.14;98247.34;5092807;28;20062;-69
2022/01/17 08:08:25;;;;;;;14.77;6.93;;;;;;;2.11;73.91;98218.38;5111069;27;20088;-68
2022/01/17 08:10:50;;;;;;;14.68;7.45;;;;;;;2.10;74.50;98203.22;5110777;28;20534;-68
2022/01/17 08:13:15;;;;;;;15.57;7.72;;;;;;;2.16;73.27;98190.59;5110205;28;20088;-71
2022/01/17 08:15:42;;;;;;;16.17;8.10;;;;;;;2.17;73.12;98181.41;5109483;28;20510;-69
2022/01/17 08:18:07;;;;;;;33.35;15.57;;;;;;;2.19;73.91;98182.78;5106313;27;20074;-68
2022/01/17 08:20:39;;;;;;;19.17;8.60;;;;;;;2.22;73.49;98185.00;5108536;28;20039;-67
2022/01/17 08:23:04;;;;;;;14.40;7.18;;;;;;;2.23;73.94;98188.53;5104775;27;20034;-67
2022/01/17 08:25:30;;;;;;;16.85;7.75;;;;;;;2.28;74.16;98190.50;5108632;28;20024;-67
2022/01/17 08:27:56;;;;;;;16.17;8.48;;;;;;;2.32;73.60;98176.19;5109883;28;20444;-67
2022/01/17 08:30:21;;;;;;;16.80;8.55;;;;;;;2.36;73.78;98174.63;5109790;28;20028;-66
2022/01/17 08:32:47;;;;;;;15.38;7.88;;;;;;;2.39;73.18;98176.03;5110608;27;20036;-68
2022/01/17 08:35:13;;;;;;;17.73;8.00;;;;;;;2.44;73.79;98175.28;5110170;28;20046;-67
2022/01/17 08:37:38;;;;;;;17.70;8.70;;;;;;;2.46;72.86;98178.56;5109689;28;20028;-68
2022/01/17 08:40:06;;;;;;;14.98;8.27;;;;;;;2.46;73.22;98149.59;5109824;28;20497;-67
2022/01/17 08:42:36;;;;;;;16.80;7.70;;;;;;;2.49;72.63;98140.16;5109342;27;20031;-67
2022/01/17 08:45:03;;;;;;;11.68;5.95;;;;;;;2.49;72.96;98142.88;5109720;28;20454;-68
2022/01/17 08:47:28;;;;;;;20.80;8.18;;;;;;;2.50;72.87;98137.19;5109484;28;20407;-69
2022/01/17 08:49:54;;;;;;;16.25;7.22;;;;;;;2.54;71.83;98142.94;5109152;27;20073;-69
2022/01/17 08:52:20;;;;;;;14.55;7.00;;;;;;;2.51;72.39;98151.56;5109860;28;20016;-68
2022/01/17 08:54:46;;;;;;;13.25;6.78;;;;;;;2.49;72.45;98148.28;5111574;28;20027;-67
2022/01/17 08:57:11;;;;;;;14.55;6.07;;;;;;;2.37;74.59;98132.16;5103788;28;20537;-68
2022/01/17 08:59:36;;;;;;;11.20;6.10;;;;;;;2.27;74.93;98135.53;5106487;28;20639;-68
2022/01/17 09:02:03;;;;;;;12.32;6.25;;;;;;;2.18;75.42;98142.47;5108602;27;20114;-68
2022/01/17 09:04:28;;;;;;;14.30;6.45;;;;;;;2.09;76.23;98120.41;5110599;28;20043;-68
2022/01/17 09:06:54;;;;;;;13.70;6.00;;;;;;;2.00;76.85;98138.16;5111192;28;20439;-68
2022/01/17 09:09:19;;;;;;;18.58;7.38;;;;;;;1.95;76.78;98108.31;5107980;28;20023;-71
2022/01/17 09:11:45;;;;;;;13.73;7.70;;;;;;;1.89;77.41;98077.66;5105157;28;20471;-70
2022/01/17 09:14:10;;;;;;;14.02;7.90;;;;;;;1.86;78.02;98099.78;5107090;28;20023;-65
2022/01/17 09:16:36;;;;;;;13.98;7.00;;;;;;;1.84;78.46;98100.06;5110580;28;20020;-66
2022/01/17 09:19:04;;;;;;;19.08;11.43;;;;;;;1.88;77.96;98081.44;5111867;27;20122;-66
2022/01/17 09:21:31;;;;;;;20.63;12.40;;;;;;;1.88;77.91;98098.50;5113118;28;20387;-67
2022/01/17 09:23:58;;;;;;;20.20;10.82;;;;;;;1.91;79.07;98124.22;5094609;28;20467;-67
2022/01/17 09:26:27;;;;;;;16.00;8.05;;;;;;;1.93;79.11;98119.38;5112968;27;20051;-66
2022/01/17 09:28:54;;;;;;;18.08;8.35;;;;;;;1.92;78.83;98104.22;5110246;28;20035;-66
2022/01/17 09:31:20;;;;;;;12.73;6.57;;;;;;;1.92;79.04;98125.84;5111608;28;20031;-68
2022/01/17 09:33:46;;;;;;;14.55;7.60;;;;;;;1.88;79.40;98084.97;5111589;27;20099;-68
2022/01/17 09:36:12;;;;;;;14.10;7.15;;;;;;;1.88;79.10;98078.72;5091437;28;20076;-68
2022/01/17 09:38:37;;;;;;;12.95;6.88;;;;;;;1.93;79.47;98070.69;5094063;28;20195;-68
2022/01/17 09:41:04;;;;;;;15.05;8.00;;;;;;;1.96;79.52;98059.38;5093078;28;20182;-66
2022/01/17 09:43:29;;;;;;;13.75;7.63;;;;;;;1.97;80.10;98058.31;5094633;28;20112;-67
2022/01/17 09:45:56;;;;;;;11.65;6.68;;;;;;;2.02;79.70;98049.47;5112356;27;20844;-68
2022/01/17 09:48:22;;;;;;;13.82;7.22;;;;;;;2.07;80.13;98047.63;5110119;28;20082;-67
2022/01/17 09:51:02;;;;;;;13.23;7.72;;;;;;;2.12;80.07;98044.16;5108460;28;20108;-67
2022/01/17 09:53:28;;;;;;;;;;;;;;;2.16;80.34;98064.25;5092330;27;20023;-66
2022/01/17 09:55:58;;;;;;;14.70;6.68;;;;;;;2.23;79.11;98024.28;5112320;27;20405;-68
2022/01/17 09:58:24;;;;;;;12.60;6.40;;;;;;;2.26;79.48;98031.06;5092565;28;20020;-67
2022/01/17 10:00:49;;;;;;;12.70;6.45;;;;;;;2.31;79.80;98014.91;5111767;28;20039;-68
2022/01/17 10:03:17;;;;;;;14.30;7.10;;;;;;;2.37;79.91;98010.38;5113111;28;20019;-68
2022/01/17 10:05:43;;;;;;;13.50;6.90;;;;;;;2.42;78.54;97990.66;5107131;27;20031;-67
2022/01/17 10:08:18;;;;;;;15.77;7.20;;;;;;;2.45;78.50;98000.97;5112182;27;20140;-67
2022/01/17 10:10:50;;;;;;;13.85;6.45;;;;;;;2.52;78.40;97997.00;5111144;28;20028;-68
2022/01/17 10:13:32;;;;;;;14.20;6.05;;;;;;;2.52;77.47;97988.88;5113708;27;20024;-66
2022/01/17 10:16:06;;;;;;;14.27;6.70;;;;;;;2.57;78.42;97976.47;5091403;28;20023;-66
2022/01/17 10:18:40;;;;;;;12.60;6.07;;;;;;;2.59;77.54;97967.03;5111294;27;20032;-68
2022/01/17 10:21:18;;;;;;;10.88;5.28;;;;;;;2.61;77.29;97978.41;5109070;28;20031;-68
2022/01/17 10:35:19;;;;;;;8.82;5.18;;;;;;;2.73;75.92;97983.66;5111093;27;20776;-66
2022/01/17 10:37:59;;;;;;;9.73;5.53;;;;;;;2.77;75.68;97975.84;5112304;28;20032;-67
2022/01/17 10:40:26;;;;;;;9.82;6.20;;;;;;;2.79;75.42;97985.34;5092300;28;20138;-66
2022/01/17 10:42:52;;;;;;;11.95;6.38;;;;;;;2.79;75.45;97960.97;5111746;28;20424;-66
2022/01/17 10:45:25;;;;;;;12.77;6.70;;;;;;;2.80;76.33;97965.31;5111777;28;20088;-67
2022/01/17 10:47:53;;;;;;;12.27;5.13;;;;;;;2.87;74.84;97948.00;5109862;27;20117;-69
2022/01/17 10:50:25;;;;;;;15.13;5.72;;;;;;;2.93;75.04;97955.13;5111091;27;20020;-68
2022/01/17 10:53:00;;;;;;;26.90;9.18;;;;;;;3.00;75.28;97953.00;5111053;28;20055;-71
2022/01/17 10:55:35;;;;;;;17.95;6.28;;;;;;;3.14;73.90;97950.66;5093264;28;20019;-71
2022/01/17 10:58:09;;;;;;;6.20;2.92;;;;;;;3.32;72.62;97954.06;5112275;28;20023;-71
2022/01/17 11:00:46;;;;;;;3.22;1.77;;;;;;;3.55;71.07;97939.28;5112084;28;20026;-72
2022/01/17 11:03:14;;;;;;;4.68;1.80;;;;;;;3.67;71.52;97920.88;5093216;28;20051;-71
2022/01/17 11:05:46;;;;;;;4.13;1.98;;;;;;;3.75;70.64;97921.47;5112910;28;20029;-71
2022/01/17 11:08:15;;;;;;;3.83;1.50;;;;;;;3.79;71.63;97955.09;5110262;28;20106;-69
2022/01/17 11:10:43;;;;;;;6.22;2.08;;;;;;;3.78;71.54;97935.31;5108638;28;20035;-69
2022/01/17 11:13:12;;;;;;;2.72;1.58;;;;;;;3.77;71.92;97949.97;5092311;28;20059;-69
2022/01/17 11:15:39;;;;;;;4.10;2.38;;;;;;;3.72;72.08;97939.09;5100340;27;20131;-70
2022/01/17 11:18:20;;;;;;;3.45;1.65;;;;;;;3.68;72.22;97936.06;5112690;27;20073;-70
2022/01/17 11:20:48;;;;;;;3.47;2.00;;;;;;;3.61;72.54;97932.81;5087787;28;20106;-71
2022/01/17 11:23:14;;;;;;;3.72;2.17;;;;;;;3.58;72.98;97946.88;5093127;28;20498;-71
2022/01/17 11:25:43;;;;;;;6.80;2.92;;;;;;;3.56;73.54;97913.78;5110311;28;20032;-69
2022/01/17 11:28:09;;;;;;;4.88;2.65;;;;;;;3.58;73.41;97915.16;5111302;28;20475;-68
2022/01/17 11:30:37;;;;;;;2.00;0.90;;;;;;;3.65;72.86;97931.19;5110147;28;20071;-69
2022/01/17 11:33:06;;;;;;;2.22;1.20;;;;;;;3.70;72.63;97936.63;5110126;28;20018;-68
2022/01/17 11:35:34;;;;;;;2.60;1.52;;;;;;;3.67;72.81;97920.06;5111943;28;20514;-70
2022/01/17 11:38:02;;;;;;;5.97;1.70;;;;;;;3.68;72.31;97911.66;5091868;28;20023;-69
2022/01/17 11:40:30;;;;;;;1.73;1.40;;;;;;;3.64;72.49;97897.03;5109168;28;20047;-69
2022/01/17 11:42:59;;;;;;;3.22;1.60;;;;;;;3.67;72.41;97885.63;5109468;28;20459;-69
2022/01/17 11:45:24;;;;;;;1.98;1.13;;;;;;;3.71;72.72;97905.72;5110211;28;20111;-69
2022/01/17 11:47:50;;;;;;;2.78;1.52;;;;;;;3.73;72.47;97878.34;5110462;28;20098;-69
2022/01/17 11:50:43;;;;;;;2.75;1.00;;;;;;;3.79;73.00;97888.13;5108138;28;20028;-68
2022/01/17 11:53:11;;;;;;;2.22;1.10;;;;;;;3.73;72.67;97908.97;5109569;28;20443;-70
2022/01/17 11:55:42;;;;;;;1.88;0.93;;;;;;;3.72;72.75;97904.63;5112360;27;20031;-69
2022/01/17 11:58:21;;;;;;;2.25;1.40;;;;;;;3.75;73.01;97922.28;5107363;28;20114;-69
2022/01/17 12:01:08;;;;;;;2.45;1.10;;;;;;;3.77;72.90;97930.97;5110304;28;20094;-68
2022/01/17 12:03:43;;;;;;;2.60;0.95;;;;;;;3.83;72.27;97908.22;5094499;28;20449;-69